sensor_id;sensor_type;location;lat;lon;timestamp;temperature;humidity
5492;DHT22;2768;53.540;10.224;2022-10-16T00:02:10;16.50;99.90
5492;DHT22;2768;53.540;10.224;2022-10-16T00:08:07;16.40;99.90
5492;DHT22;2768;53.540;10.224;2022-10-16T00:14:02;16.50;99.90
5492;DHT22;2768;53.540;10.224;2022-10-16T00:19:55;16.40;99.90
5492;DHT22;2768;53.540;10.224;2022-10-16T00:25:57;16.30;99.90
5492;DHT22;2768;53.540;10.224;2022-10-16T00:31:50;16.40;99.90
5492;DHT22;2768;53.540;10.224;2022-10-16T00:37:43;16.30;99.90
5492;DHT22;2768;53.540;10.224;2022-10-16T00:43:41;16.30;99.90
5492;DHT22;2768;53.540;10.224;2022-10-16T00:49:34;16.10;99.90
5492;DHT22;2768;53.540;10.224;2022-10-16T00:55:30;16.20;99.90
5492;DHT22;2768;53.540;10.224;2022-10-16T01:01:25;16.30;99.90
5492;DHT22;2768;53.540;10.224;2022-10-16T01:07:33;16.20;99.90
5492;DHT22;2768;53.540;10.224;2022-10-16T01:13:32;16.10;99.90
5492;DHT22;2768;53.540;10.224;2022-10-16T01:19:56;16.00;99.90
5492;DHT22;2768;53.540;10.224;2022-10-16T01:32:18;15.80;99.90
5492;DHT22;2768;53.540;10.224;2022-10-16T01:38:15;15.70;99.90
5492;DHT22;2768;53.540;10.224;2022-10-16T01:44:13;15.70;99.90
5492;DHT22;2768;53.540;10.224;2022-10-16T01:50:10;15.70;99.90
5492;DHT22;2768;53.540;10.224;2022-10-16T01:56:07;15.80;99.90
5492;DHT22;2768;53.540;10.224;2022-10-16T02:02:06;15.90;99.90
5492;DHT22;2768;53.540;10.224;2022-10-16T02:08:02;15.80;99.90
5492;DHT22;2768;53.540;10.224;2022-10-16T02:14:00;15.80;99.90
5492;DHT22;2768;53.540;10.224;2022-10-16T02:19:56;15.80;99.90
5492;DHT22;2768;53.540;10.224;2022-10-16T02:25:52;15.80;99.90
5492;DHT22;2768;53.540;10.224;2022-10-16T02:31:50;15.60;99.90
5492;DHT22;2768;53.540;10.224;2022-10-16T02:37:46;15.70;99.90
5492;DHT22;2768;53.540;10.224;2022-10-16T02:43:40;15.40;99.90
5492;DHT22;2768;53.540;10.224;2022-10-16T02:49:33;15.20;99.90
5492;DHT22;2768;53.540;10.224;2022-10-16T02:55:27;15.50;99.90
5492;DHT22;2768;53.540;10.224;2022-10-16T03:01:22;15.60;99.90
5492;DHT22;2768;53.540;10.224;2022-10-16T03:07:16;15.30;99.90
5492;DHT22;2768;53.540;10.224;2022-10-16T03:13:09;15.40;99.90
5492;DHT22;2768;53.540;10.224;2022-10-16T03:19:03;15.50;99.90
5492;DHT22;2768;53.540;10.224;2022-10-16T03:24:56;15.50;99.90
5492;DHT22;2768;53.540;10.224;2022-10-16T03:30:49;15.50;99.90
5492;DHT22;2768;53.540;10.224;2022-10-16T03:36:44;15.40;99.90
5492;DHT22;2768;53.540;10.224;2022-10-16T03:42:37;15.50;99.90
5492;DHT22;2768;53.540;10.224;2022-10-16T03:48:30;15.40;99.90
5492;DHT22;2768;53.540;10.224;2022-10-16T03:54:25;15.20;99.90
5492;DHT22;2768;53.540;10.224;2022-10-16T04:00:18;15.40;99.90
5492;DHT22;2768;53.540;10.224;2022-10-16T04:06:11;15.40;99.90
5492;DHT22;2768;53.540;10.224;2022-10-16T04:12:06;15.50;99.90
5492;DHT22;2768;53.540;10.224;2022-10-16T04:17:59;15.40;99.90
5492;DHT22;2768;53.540;10.224;2022-10-16T04:23:52;15.40;99.90
5492;DHT22;2768;53.540;10.224;2022-10-16T04:29:47;15.30;99.90
5492;DHT22;2768;53.540;10.224;2022-10-16T04:35:40;15.20;99.90
5492;DHT22;2768;53.540;10.224;2022-10-16T04:41:33;15.30;99.90
5492;DHT22;2768;53.540;10.224;2022-10-16T04:47:28;15.20;99.90
5492;DHT22;2768;53.540;10.224;2022-10-16T04:53:21;15.10;99.90
5492;DHT22;2768;53.540;10.224;2022-10-16T04:59:15;15.00;99.90
5492;DHT22;2768;53.540;10.224;2022-10-16T05:05:10;15.00;99.90
5492;DHT22;2768;53.540;10.224;2022-10-16T05:11:04;15.10;99.90
5492;DHT22;2768;53.540;10.224;2022-10-16T05:16:57;15.00;99.90
5492;DHT22;2768;53.540;10.224;2022-10-16T05:22:51;14.80;99.90
5492;DHT22;2768;53.540;10.224;2022-10-16T05:28:44;14.80;99.90
5492;DHT22;2768;53.540;10.224;2022-10-16T05:34:38;14.80;99.90
5492;DHT22;2768;53.540;10.224;2022-10-16T05:40:32;14.90;99.90
5492;DHT22;2768;53.540;10.224;2022-10-16T05:46:25;14.90;99.90
5492;DHT22;2768;53.540;10.224;2022-10-16T05:52:18;14.80;99.90
5492;DHT22;2768;53.540;10.224;2022-10-16T05:58:13;14.90;99.90
5492;DHT22;2768;53.540;10.224;2022-10-16T06:04:08;14.90;99.90
5492;DHT22;2768;53.540;10.224;2022-10-16T06:10:07;15.00;99.90
5492;DHT22;2768;53.540;10.224;2022-10-16T06:16:03;14.90;99.90
5492;DHT22;2768;53.540;10.224;2022-10-16T06:21:56;14.80;99.90
5492;DHT22;2768;53.540;10.224;2022-10-16T06:27:50;14.60;99.90
5492;DHT22;2768;53.540;10.224;2022-10-16T06:33:44;14.60;99.90
5492;DHT22;2768;53.540;10.224;2022-10-16T06:39:38;14.70;99.90
5492;DHT22;2768;53.540;10.224;2022-10-16T06:45:32;14.60;99.90
5492;DHT22;2768;53.540;10.224;2022-10-16T06:51:26;14.30;99.90
5492;DHT22;2768;53.540;10.224;2022-10-16T06:57:20;14.50;99.90
5492;DHT22;2768;53.540;10.224;2022-10-16T07:03:13;14.60;99.90
5492;DHT22;2768;53.540;10.224;2022-10-16T07:09:09;14.20;99.90
5492;DHT22;2768;53.540;10.224;2022-10-16T07:15:03;14.10;99.90
5492;DHT22;2768;53.540;10.224;2022-10-16T07:21:03;14.10;99.90
5492;DHT22;2768;53.540;10.224;2022-10-16T07:26:57;14.10;99.90
5492;DHT22;2768;53.540;10.224;2022-10-16T07:32:51;14.20;99.90
5492;DHT22;2768;53.540;10.224;2022-10-16T07:38:44;14.60;99.90
5492;DHT22;2768;53.540;10.224;2022-10-16T07:44:39;14.90;99.90
5492;DHT22;2768;53.540;10.224;2022-10-16T07:50:32;15.10;99.90
5492;DHT22;2768;53.540;10.224;2022-10-16T07:56:26;15.20;99.90
5492;DHT22;2768;53.540;10.224;2022-10-16T08:02:20;15.10;99.90
5492;DHT22;2768;53.540;10.224;2022-10-16T08:08:14;15.20;99.90
5492;DHT22;2768;53.540;10.224;2022-10-16T08:14:07;15.20;99.90
5492;DHT22;2768;53.540;10.224;2022-10-16T08:20:02;15.40;99.90
5492;DHT22;2768;53.540;10.224;2022-10-16T08:26:01;15.40;99.90
5492;DHT22;2768;53.540;10.224;2022-10-16T08:31:55;15.40;99.90
5492;DHT22;2768;53.540;10.224;2022-10-16T08:37:50;15.30;99.90
5492;DHT22;2768;53.540;10.224;2022-10-16T08:50:08;15.30;99.90
5492;DHT22;2768;53.540;10.224;2022-10-16T08:56:03;15.40;99.90
5492;DHT22;2768;53.540;10.224;2022-10-16T09:01:57;15.60;99.90
5492;DHT22;2768;53.540;10.224;2022-10-16T09:07:59;15.70;99.90
5492;DHT22;2768;53.540;10.224;2022-10-16T09:14:06;15.80;99.90
5492;DHT22;2768;53.540;10.224;2022-10-16T09:20:13;16.00;99.90
5492;DHT22;2768;53.540;10.224;2022-10-16T09:26:11;16.10;99.90
5492;DHT22;2768;53.540;10.224;2022-10-16T09:32:12;16.10;99.90
5492;DHT22;2768;53.540;10.224;2022-10-16T09:38:07;16.30;99.90
5492;DHT22;2768;53.540;10.224;2022-10-16T09:44:03;16.30;99.90
5492;DHT22;2768;53.540;10.224;2022-10-16T09:50:02;16.40;99.90
5492;DHT22;2768;53.540;10.224;2022-10-16T09:55:57;16.60;99.90
5492;DHT22;2768;53.540;10.224;2022-10-16T10:01:51;16.70;99.90
5492;DHT22;2768;53.540;10.224;2022-10-16T10:07:54;16.80;99.90
5492;DHT22;2768;53.540;10.224;2022-10-16T10:13:48;16.80;99.90
5492;DHT22;2768;53.540;10.224;2022-10-16T10:19:46;17.20;99.90
5492;DHT22;2768;53.540;10.224;2022-10-16T10:25:49;17.60;99.90
5492;DHT22;2768;53.540;10.224;2022-10-16T10:31:49;17.90;99.90
5492;DHT22;2768;53.540;10.224;2022-10-16T10:37:55;18.30;99.90
5492;DHT22;2768;53.540;10.224;2022-10-16T10:44:02;18.50;99.90
5492;DHT22;2768;53.540;10.224;2022-10-16T10:50:04;18.90;99.90
5492;DHT22;2768;53.540;10.224;2022-10-16T10:56:13;19.20;99.90
5492;DHT22;2768;53.540;10.224;2022-10-16T11:02:21;19.30;99.90
5492;DHT22;2768;53.540;10.224;2022-10-16T11:08:43;19.50;99.90
5492;DHT22;2768;53.540;10.224;2022-10-16T11:14:42;19.60;88.20
5492;DHT22;2768;53.540;10.224;2022-10-16T11:20:42;19.50;74.50
5492;DHT22;2768;53.540;10.224;2022-10-16T11:26:40;19.60;72.60
5492;DHT22;2768;53.540;10.224;2022-10-16T11:32:52;19.50;54.90
5492;DHT22;2768;53.540;10.224;2022-10-16T11:39:00;19.60;39.50
5492;DHT22;2768;53.540;10.224;2022-10-16T11:45:02;19.80;36.50
5492;DHT22;2768;53.540;10.224;2022-10-16T11:51:00;20.00;28.40
5492;DHT22;2768;53.540;10.224;2022-10-16T11:57:01;19.50;20.90
5492;DHT22;2768;53.540;10.224;2022-10-16T12:03:02;19.50;17.70
5492;DHT22;2768;53.540;10.224;2022-10-16T12:08:59;19.20;18.80
5492;DHT22;2768;53.540;10.224;2022-10-16T12:15:03;18.70;20.70
5492;DHT22;2768;53.540;10.224;2022-10-16T12:21:14;18.90;21.50
5492;DHT22;2768;53.540;10.224;2022-10-16T12:27:23;18.80;22.40
5492;DHT22;2768;53.540;10.224;2022-10-16T12:33:23;18.80;26.90
5492;DHT22;2768;53.540;10.224;2022-10-16T12:39:21;18.80;30.80
5492;DHT22;2768;53.540;10.224;2022-10-16T12:45:27;19.30;27.80
5492;DHT22;2768;53.540;10.224;2022-10-16T12:51:25;19.80;22.50
5492;DHT22;2768;53.540;10.224;2022-10-16T12:57:34;20.00;6.60
5492;DHT22;2768;53.540;10.224;2022-10-16T13:03:48;20.10;5.20
5492;DHT22;2768;53.540;10.224;2022-10-16T13:09:58;20.30;2.00
5492;DHT22;2768;53.540;10.224;2022-10-16T13:16:05;19.90;1.00
5492;DHT22;2768;53.540;10.224;2022-10-16T13:22:16;19.50;1.00
5492;DHT22;2768;53.540;10.224;2022-10-16T13:28:13;19.40;1.00
5492;DHT22;2768;53.540;10.224;2022-10-16T13:34:13;19.20;1.00
5492;DHT22;2768;53.540;10.224;2022-10-16T13:40:17;19.50;1.00
5492;DHT22;2768;53.540;10.224;2022-10-16T13:46:15;19.70;1.00
5492;DHT22;2768;53.540;10.224;2022-10-16T13:52:17;20.00;1.00
5492;DHT22;2768;53.540;10.224;2022-10-16T13:58:13;19.90;1.00
5492;DHT22;2768;53.540;10.224;2022-10-16T14:04:10;20.00;1.00
5492;DHT22;2768;53.540;10.224;2022-10-16T14:10:06;19.90;1.00
5492;DHT22;2768;53.540;10.224;2022-10-16T14:16:06;19.60;1.00
5492;DHT22;2768;53.540;10.224;2022-10-16T14:22:02;19.60;1.00
5492;DHT22;2768;53.540;10.224;2022-10-16T14:28:00;19.80;1.00
5492;DHT22;2768;53.540;10.224;2022-10-16T14:33:54;19.80;1.00
5492;DHT22;2768;53.540;10.224;2022-10-16T14:39:50;19.80;1.00
5492;DHT22;2768;53.540;10.224;2022-10-16T14:45:51;19.80;1.00
5492;DHT22;2768;53.540;10.224;2022-10-16T14:51:46;19.90;1.00
5492;DHT22;2768;53.540;10.224;2022-10-16T14:57:43;19.70;1.00
5492;DHT22;2768;53.540;10.224;2022-10-16T15:03:37;19.80;1.00
5492;DHT22;2768;53.540;10.224;2022-10-16T15:09:30;19.70;1.00
5492;DHT22;2768;53.540;10.224;2022-10-16T15:15:32;19.60;1.00
5492;DHT22;2768;53.540;10.224;2022-10-16T15:21:28;19.50;1.00
5492;DHT22;2768;53.540;10.224;2022-10-16T15:27:21;19.40;1.00
5492;DHT22;2768;53.540;10.224;2022-10-16T15:33:19;19.40;1.00
5492;DHT22;2768;53.540;10.224;2022-10-16T15:39:14;19.40;1.00
5492;DHT22;2768;53.540;10.224;2022-10-16T15:45:09;19.20;1.00
5492;DHT22;2768;53.540;10.224;2022-10-16T15:51:06;19.20;1.00
5492;DHT22;2768;53.540;10.224;2022-10-16T15:56:59;18.90;1.00
5492;DHT22;2768;53.540;10.224;2022-10-16T16:02:53;18.80;1.00
5492;DHT22;2768;53.540;10.224;2022-10-16T16:08:48;18.80;1.00
5492;DHT22;2768;53.540;10.224;2022-10-16T16:14:41;18.80;1.00
5492;DHT22;2768;53.540;10.224;2022-10-16T16:20:38;18.60;1.00
5492;DHT22;2768;53.540;10.224;2022-10-16T16:26:32;18.60;1.00
5492;DHT22;2768;53.540;10.224;2022-10-16T16:32:31;18.60;1.00
5492;DHT22;2768;53.540;10.224;2022-10-16T16:38:25;18.60;1.00
5492;DHT22;2768;53.540;10.224;2022-10-16T16:44:19;18.40;1.00
5492;DHT22;2768;53.540;10.224;2022-10-16T16:50:13;18.40;1.00
5492;DHT22;2768;53.540;10.224;2022-10-16T16:56:06;18.40;1.00
5492;DHT22;2768;53.540;10.224;2022-10-16T17:02:02;18.40;1.00
5492;DHT22;2768;53.540;10.224;2022-10-16T17:07:55;18.40;1.00
5492;DHT22;2768;53.540;10.224;2022-10-16T17:13:49;18.40;1.00
5492;DHT22;2768;53.540;10.224;2022-10-16T17:19:50;18.40;1.00
5492;DHT22;2768;53.540;10.224;2022-10-16T17:25:45;18.30;1.00
5492;DHT22;2768;53.540;10.224;2022-10-16T17:31:38;18.30;1.00
5492;DHT22;2768;53.540;10.224;2022-10-16T17:37:33;18.20;1.00
5492;DHT22;2768;53.540;10.224;2022-10-16T17:43:27;18.20;1.00
5492;DHT22;2768;53.540;10.224;2022-10-16T17:49:21;18.10;1.00
5492;DHT22;2768;53.540;10.224;2022-10-16T17:55:17;18.10;1.00
5492;DHT22;2768;53.540;10.224;2022-10-16T18:01:19;18.00;1.00
5492;DHT22;2768;53.540;10.224;2022-10-16T18:07:12;18.00;1.00
5492;DHT22;2768;53.540;10.224;2022-10-16T18:13:07;17.90;1.00
5492;DHT22;2768;53.540;10.224;2022-10-16T18:19:01;17.90;1.00
5492;DHT22;2768;53.540;10.224;2022-10-16T18:24:54;17.80;1.30
5492;DHT22;2768;53.540;10.224;2022-10-16T18:30:57;17.70;3.40
5492;DHT22;2768;53.540;10.224;2022-10-16T18:36:51;17.70;2.00
5492;DHT22;2768;53.540;10.224;2022-10-16T18:42:45;17.60;1.00
5492;DHT22;2768;53.540;10.224;2022-10-16T18:48:42;17.50;1.00
5492;DHT22;2768;53.540;10.224;2022-10-16T18:54:36;17.50;1.00
5492;DHT22;2768;53.540;10.224;2022-10-16T19:00:29;17.40;1.20
5492;DHT22;2768;53.540;10.224;2022-10-16T19:06:24;17.40;3.00
5492;DHT22;2768;53.540;10.224;2022-10-16T19:12:18;17.20;5.60
5492;DHT22;2768;53.540;10.224;2022-10-16T19:18:11;17.20;7.50
5492;DHT22;2768;53.540;10.224;2022-10-16T19:24:07;17.20;7.60
5492;DHT22;2768;53.540;10.224;2022-10-16T19:30:00;17.20;5.10
5492;DHT22;2768;53.540;10.224;2022-10-16T19:35:54;17.10;6.60
5492;DHT22;2768;53.540;10.224;2022-10-16T19:41:49;17.00;7.90
5492;DHT22;2768;53.540;10.224;2022-10-16T19:47:42;17.00;9.00
5492;DHT22;2768;53.540;10.224;2022-10-16T19:53:36;17.00;7.10
5492;DHT22;2768;53.540;10.224;2022-10-16T19:59:31;17.00;7.50
5492;DHT22;2768;53.540;10.224;2022-10-16T20:05:24;16.90;7.30
5492;DHT22;2768;53.540;10.224;2022-10-16T20:11:19;16.90;9.50
5492;DHT22;2768;53.540;10.224;2022-10-16T20:17:14;16.90;10.90
5492;DHT22;2768;53.540;10.224;2022-10-16T20:23:08;16.80;11.60
5492;DHT22;2768;53.540;10.224;2022-10-16T20:29:02;16.80;11.70
5492;DHT22;2768;53.540;10.224;2022-10-16T20:34:57;16.80;11.70
5492;DHT22;2768;53.540;10.224;2022-10-16T20:40:55;16.80;11.60
5492;DHT22;2768;53.540;10.224;2022-10-16T20:46:48;16.70;11.60
5492;DHT22;2768;53.540;10.224;2022-10-16T20:52:42;16.70;14.30
5492;DHT22;2768;53.540;10.224;2022-10-16T20:58:36;16.60;15.70
5492;DHT22;2768;53.540;10.224;2022-10-16T21:04:29;16.60;15.10
5492;DHT22;2768;53.540;10.224;2022-10-16T21:10:23;16.60;16.10
5492;DHT22;2768;53.540;10.224;2022-10-16T21:16:17;16.50;18.60
5492;DHT22;2768;53.540;10.224;2022-10-16T21:22:09;16.50;21.40
5492;DHT22;2768;53.540;10.224;2022-10-16T21:28:04;16.40;22.20
5492;DHT22;2768;53.540;10.224;2022-10-16T21:33:58;16.50;22.40
5492;DHT22;2768;53.540;10.224;2022-10-16T21:39:53;16.40;22.40
5492;DHT22;2768;53.540;10.224;2022-10-16T21:45:48;16.40;23.30
5492;DHT22;2768;53.540;10.224;2022-10-16T21:51:43;16.50;23.40
5492;DHT22;2768;53.540;10.224;2022-10-16T21:57:36;16.40;23.10
5492;DHT22;2768;53.540;10.224;2022-10-16T22:03:31;16.40;23.90
5492;DHT22;2768;53.540;10.224;2022-10-16T22:09:25;16.40;23.00
5492;DHT22;2768;53.540;10.224;2022-10-16T22:15:18;16.40;24.30
5492;DHT22;2768;53.540;10.224;2022-10-16T22:21:13;16.30;25.40
5492;DHT22;2768;53.540;10.224;2022-10-16T22:27:06;16.30;23.80
5492;DHT22;2768;53.540;10.224;2022-10-16T22:32:59;16.40;27.40
5492;DHT22;2768;53.540;10.224;2022-10-16T22:38:54;16.30;28.00
5492;DHT22;2768;53.540;10.224;2022-10-16T22:44:47;16.30;29.30
5492;DHT22;2768;53.540;10.224;2022-10-16T22:50:40;16.20;30.00
5492;DHT22;2768;53.540;10.224;2022-10-16T22:56:35;16.00;30.90
5492;DHT22;2768;53.540;10.224;2022-10-16T23:02:28;15.90;35.70
5492;DHT22;2768;53.540;10.224;2022-10-16T23:08:22;16.00;39.80
5492;DHT22;2768;53.540;10.224;2022-10-16T23:14:20;16.00;42.20
5492;DHT22;2768;53.540;10.224;2022-10-16T23:20:13;16.00;44.70
5492;DHT22;2768;53.540;10.224;2022-10-16T23:26:08;16.10;45.40
5492;DHT22;2768;53.540;10.224;2022-10-16T23:32:03;16.00;47.80
5492;DHT22;2768;53.540;10.224;2022-10-16T23:37:56;16.10;50.00
5492;DHT22;2768;53.540;10.224;2022-10-16T23:43:50;16.00;54.90
5492;DHT22;2768;53.540;10.224;2022-10-16T23:49:44;16.00;58.50
5492;DHT22;2768;53.540;10.224;2022-10-16T23:55:38;16.00;64.10
